Time;durP1;ratioP1;P1;durP2;ratioP2;P2;SDS_P1;SDS_P2;PMS_P1;PMS_P2;Temp;Humidity;BMP_temperature;BMP_pressure;BME280_temperature;BME280_humidity;BME280_pressure;Samples;Min_cycle;Max_cycle;Signal;HPM_P1;HPM_P2
2024/01/06 00:00:10;;;;;;;11.23;5.50;;;2.90;99.90;;;;;;4993240;28;20491;-62
2024/01/06 00:02:39;;;;;;;15.77;6.50;;;2.90;99.90;;;;;;4994240;28;20100;-61
2024/01/06 00:05:06;;;;;;;10.82;5.55;;;2.90;99.90;;;;;;4985730;28;20034;-62
2024/01/06 00:07:33;;;;;;;15.20;5.53;;;2.90;99.90;;;;;;4989006;28;20073;-62
2024/01/06 00:10:00;;;;;;;13.90;4.97;;;2.90;99.90;;;;;;4992989;28;20042;-62
2024/01/06 00:12:27;;;;;;;12.55;5.70;;;2.90;99.90;;;;;;4990078;28;20042;-61
2024/01/06 00:14:54;;;;;;;15.10;4.85;;;3.00;99.90;;;;;;4993780;28;20035;-62
2024/01/06 00:17:20;;;;;;;13.55;6.20;;;3.00;99.90;;;;;;4993439;28;20044;-62
2024/01/06 00:19:50;;;;;;;18.42;7.80;;;3.00;99.90;;;;;;4993580;28;20050;-62
2024/01/06 00:22:20;;;;;;;19.55;10.48;;;3.10;99.90;;;;;;4994313;28;20073;-62
2024/01/06 00:24:48;;;;;;;20.75;11.13;;;3.00;99.90;;;;;;4993323;28;20042;-62
2024/01/06 00:27:16;;;;;;;21.60;11.43;;;3.00;99.90;;;;;;4993159;28;20050;-62
2024/01/06 00:29:43;;;;;;;30.48;14.77;;;3.00;99.90;;;;;;4993300;28;20038;-62
2024/01/06 00:32:09;;;;;;;19.60;10.07;;;2.90;99.90;;;;;;4993745;28;20475;-62
2024/01/06 00:34:36;;;;;;;27.00;14.30;;;2.90;99.90;;;;;;4975851;28;20038;-61
2024/01/06 00:37:03;;;;;;;28.23;13.07;;;2.90;99.90;;;;;;4991058;28;20065;-62
2024/01/06 00:39:30;;;;;;;28.63;13.60;;;2.90;99.90;;;;;;4992593;28;20047;-62
2024/01/06 00:41:57;;;;;;;27.38;13.90;;;2.90;99.90;;;;;;4993241;28;20050;-62
2024/01/06 00:44:24;;;;;;;31.65;15.07;;;2.90;99.90;;;;;;4990967;28;20078;-62
2024/01/06 00:46:50;;;;;;;31.92;14.90;;;3.00;99.90;;;;;;4988652;28;20122;-61
2024/01/06 00:49:17;;;;;;;28.02;14.32;;;3.00;99.90;;;;;;4992895;28;20129;-62
2024/01/06 00:51:44;;;;;;;25.48;12.23;;;3.00;99.90;;;;;;4993211;28;20647;-62
2024/01/06 00:54:11;;;;;;;23.75;13.65;;;2.90;99.90;;;;;;4992665;28;20515;-62
2024/01/06 00:56:39;;;;;;;26.42;12.48;;;2.90;99.90;;;;;;4989741;28;20133;-62
2024/01/06 00:59:06;;;;;;;21.95;11.80;;;2.90;99.90;;;;;;4990441;28;20031;-62
2024/01/06 01:01:32;;;;;;;27.27;13.43;;;2.90;99.90;;;;;;4992047;28;20046;-62
2024/01/06 01:03:59;;;;;;;24.40;12.85;;;2.90;99.90;;;;;;4992788;28;20419;-62
2024/01/06 01:06:26;;;;;;;27.73;12.93;;;2.90;99.90;;;;;;4992378;28;20046;-61
2024/01/06 01:08:53;;;;;;;24.10;11.93;;;2.90;99.90;;;;;;4992686;28;20496;-62
2024/01/06 01:11:20;;;;;;;15.70;8.23;;;2.90;99.90;;;;;;4992307;28;20414;-63
2024/01/06 01:13:47;;;;;;;;;;;2.90;99.90;;;;;;4992708;28;20088;-62
2024/01/06 01:16:14;;;;;;;17.80;9.85;;;2.90;99.90;;;;;;4992847;28;19929;-62
2024/01/06 01:18:40;;;;;;;20.23;10.30;;;2.90;99.90;;;;;;4992973;28;20547;-62
2024/01/06 01:21:07;;;;;;;19.17;9.60;;;2.90;99.90;;;;;;4990711;28;20046;-61
2024/01/06 01:23:34;;;;;;;20.20;9.00;;;2.90;99.90;;;;;;4992793;28;20046;-62
2024/01/06 01:26:01;;;;;;;20.65;9.68;;;2.80;99.90;;;;;;4991056;28;20038;-61
2024/01/06 01:28:28;;;;;;;20.48;9.43;;;2.80;99.90;;;;;;4992275;28;20458;-62
2024/01/06 01:30:55;;;;;;;13.25;7.22;;;2.80;99.90;;;;;;4992116;28;20042;-62
2024/01/06 01:33:22;;;;;;;22.55;8.95;;;2.80;99.90;;;;;;4992188;28;20388;-62
2024/01/06 01:35:49;;;;;;;20.75;9.02;;;2.80;99.90;;;;;;4973822;28;20046;-62
2024/01/06 01:38:15;;;;;;;19.30;9.82;;;2.80;99.90;;;;;;4992399;28;20040;-62
2024/01/06 01:40:42;;;;;;;19.23;11.90;;;2.80;99.90;;;;;;4991493;28;20038;-62
2024/01/06 01:43:19;;;;;;;29.38;14.00;;;2.80;99.90;;;;;;4998908;28;20050;-62
2024/01/06 01:45:53;;;;;;;25.40;14.10;;;2.80;99.90;;;;;;4989329;28;20527;-62
2024/01/06 01:48:20;;;;;;;25.20;14.02;;;2.70;99.90;;;;;;4991761;28;20070;-62
2024/01/06 01:50:48;;;;;;;24.90;13.10;;;2.70;99.90;;;;;;4991821;28;20049;-61
2024/01/06 01:53:14;;;;;;;25.00;13.27;;;2.70;99.90;;;;;;4988587;28;20046;-62
2024/01/06 01:55:43;;;;;;;24.15;13.20;;;2.70;99.90;;;;;;4988025;28;20540;-62
2024/01/06 01:58:12;;;;;;;28.52;13.77;;;2.70;99.90;;;;;;4991958;28;20050;-62
2024/01/06 02:00:38;;;;;;;31.10;13.85;;;2.70;99.90;;;;;;5001003;28;20068;-61
2024/01/06 02:03:07;;;;;;;30.65;14.68;;;2.70;99.90;;;;;;4997827;28;20550;-62
2024/01/06 02:05:34;;;;;;;30.10;14.88;;;2.70;99.90;;;;;;4991299;28;20501;-62
2024/01/06 02:08:01;;;;;;;33.65;15.25;;;2.70;99.90;;;;;;4991998;28;20046;-62
2024/01/06 02:10:29;;;;;;;22.30;11.52;;;2.60;99.90;;;;;;4989911;28;20065;-62
2024/01/06 02:12:55;;;;;;;33.75;15.50;;;2.60;99.90;;;;;;4992427;28;20034;-62
2024/01/06 02:15:22;;;;;;;26.77;15.07;;;2.60;99.90;;;;;;4973603;28;20158;-61
2024/01/06 02:17:49;;;;;;;32.13;16.95;;;2.50;99.90;;;;;;4973666;28;20125;-62
2024/01/06 02:20:19;;;;;;;35.47;16.00;;;2.50;99.90;;;;;;4992011;28;20634;-62
2024/01/06 02:22:46;;;;;;;30.33;15.30;;;2.50;99.90;;;;;;4991253;28;20041;-62
2024/01/06 02:25:13;;;;;;;31.85;15.88;;;2.50;99.90;;;;;;4992051;28;20038;-62
2024/01/06 02:27:40;;;;;;;29.35;15.38;;;2.50;99.90;;;;;;4989086;28;20133;-62
2024/01/06 02:30:07;;;;;;;31.80;15.10;;;2.50;99.90;;;;;;4991816;28;20058;-62
2024/01/06 02:32:34;;;;;;;38.78;16.55;;;2.60;99.90;;;;;;4971845;28;20050;-62
2024/01/06 02:35:01;;;;;;;28.23;13.57;;;2.60;99.90;;;;;;4974463;28;20069;-62
2024/01/06 02:37:28;;;;;;;28.90;15.10;;;2.60;99.90;;;;;;4990057;28;20050;-62
2024/01/06 02:39:55;;;;;;;30.95;14.13;;;2.60;99.90;;;;;;4991109;28;20069;-62
2024/01/06 02:42:22;;;;;;;27.13;13.98;;;2.60;99.90;;;;;;4991876;28;20053;-62
2024/01/06 02:44:49;;;;;;;27.73;14.05;;;2.60;99.90;;;;;;4991527;28;20439;-62
2024/01/06 02:47:15;;;;;;;29.25;13.80;;;2.60;99.90;;;;;;4990907;28;20042;-62
2024/01/06 02:49:42;;;;;;;30.50;13.73;;;2.60;99.90;;;;;;4991572;28;20096;-61
2024/01/06 02:52:09;;;;;;;25.77;13.65;;;2.70;99.90;;;;;;4991155;28;20699;-60
2024/01/06 02:54:36;;;;;;;20.33;9.73;;;2.70;99.90;;;;;;4989573;28;20042;-62
2024/01/06 02:57:03;;;;;;;24.85;14.30;;;2.70;99.90;;;;;;4982223;28;20078;-62
2024/01/06 02:59:30;;;;;;;25.95;12.40;;;2.60;99.90;;;;;;4988812;28;20046;-61
2024/01/06 03:01:57;;;;;;;;;;;2.70;99.90;;;;;;4997670;28;20042;-62
2024/01/06 03:04:24;;;;;;;32.17;12.23;;;2.60;99.90;;;;;;4976742;28;19928;-61
2024/01/06 03:06:53;;;;;;;28.50;12.55;;;2.70;99.90;;;;;;4994302;28;20057;-62
2024/01/06 03:09:20;;;;;;;24.02;11.80;;;2.70;99.90;;;;;;4995134;28;20141;-62
2024/01/06 03:11:47;;;;;;;25.30;12.02;;;2.70;99.90;;;;;;4994358;28;20439;-62
2024/01/06 03:14:14;;;;;;;16.05;8.88;;;2.70;99.90;;;;;;4995023;28;20042;-62
2024/01/06 03:16:40;;;;;;;18.33;9.73;;;2.70;99.90;;;;;;4987968;28;20051;-61
2024/01/06 03:19:07;;;;;;;26.27;12.38;;;2.70;99.90;;;;;;4994932;28;20043;-62
2024/01/06 03:21:34;;;;;;;26.80;12.15;;;2.70;99.90;;;;;;4990811;28;20046;-62
2024/01/06 03:24:01;;;;;;;23.17;11.77;;;2.70;99.90;;;;;;4994427;28;20034;-62
2024/01/06 03:26:28;;;;;;;20.73;11.50;;;2.70;99.90;;;;;;4983544;28;20046;-62
2024/01/06 03:28:55;;;;;;;31.83;12.32;;;2.70;99.90;;;;;;4986571;28;20043;-62
2024/01/06 03:31:22;;;;;;;22.25;12.38;;;2.70;99.90;;;;;;4994527;28;20423;-62
2024/01/06 03:33:49;;;;;;;24.45;11.70;;;2.70;99.90;;;;;;4987328;28;20053;-62
2024/01/06 03:36:16;;;;;;;27.35;11.57;;;2.70;99.90;;;;;;4993870;28;20038;-61
2024/01/06 03:38:43;;;;;;;21.45;12.10;;;2.70;99.90;;;;;;4994570;28;20578;-62
2024/01/06 03:41:10;;;;;;;22.92;11.48;;;2.70;99.90;;;;;;4997138;28;20053;-62
2024/01/06 03:43:37;;;;;;;21.45;11.95;;;2.60;99.90;;;;;;4992954;28;20042;-62
2024/01/06 03:46:05;;;;;;;22.15;11.20;;;2.70;99.90;;;;;;4994744;28;20076;-62
2024/01/06 03:48:32;;;;;;;21.17;11.13;;;2.70;99.90;;;;;;4992567;28;20388;-62
2024/01/06 03:51:00;;;;;;;;;;;2.70;99.90;;;;;;4992804;28;20070;-62
2024/01/06 03:53:27;;;;;;;33.90;12.87;;;2.80;99.90;;;;;;4993922;28;19933;-62
2024/01/06 03:55:54;;;;;;;30.42;12.38;;;2.80;99.90;;;;;;4993727;28;20045;-62
2024/01/06 03:58:20;;;;;;;23.17;13.32;;;2.70;99.90;;;;;;4989546;28;20569;-62
2024/01/06 04:00:47;;;;;;;26.15;12.80;;;2.70;99.90;;;;;;4993141;28;20046;-61
2024/01/06 04:03:14;;;;;;;21.25;11.85;;;2.70;99.90;;;;;;4994380;28;20046;-62
2024/01/06 04:05:41;;;;;;;25.92;12.30;;;2.70;99.90;;;;;;4993475;28;20046;-62
2024/01/06 04:08:08;;;;;;;29.30;12.68;;;2.70;99.90;;;;;;4976617;28;20408;-60
2024/01/06 04:10:35;;;;;;;24.75;11.70;;;2.70;99.90;;;;;;4988594;28;20127;-62
2024/01/06 04:13:02;;;;;;;27.77;13.07;;;2.80;99.90;;;;;;4994333;28;20064;-62
2024/01/06 04:15:28;;;;;;;27.20;11.70;;;2.80;99.90;;;;;;4992517;28;20042;-62
2024/01/06 04:17:55;;;;;;;29.67;12.32;;;2.90;99.90;;;;;;4994442;28;20076;-62
2024/01/06 04:20:22;;;;;;;25.52;11.90;;;2.80;99.90;;;;;;4989560;28;20536;-62
2024/01/06 04:22:49;;;;;;;27.10;11.60;;;2.80;99.90;;;;;;4993909;28;20045;-61
2024/01/06 04:25:16;;;;;;;24.42;12.43;;;2.90;99.90;;;;;;4993958;28;20115;-62
2024/01/06 04:27:43;;;;;;;24.55;11.02;;;2.90;99.90;;;;;;4993064;28;20078;-62
2024/01/06 04:30:10;;;;;;;24.63;12.45;;;2.80;99.90;;;;;;4987885;28;20500;-62
2024/01/06 04:32:37;;;;;;;24.73;11.55;;;2.90;99.90;;;;;;4972421;28;20505;-62
2024/01/06 04:35:05;;;;;;;23.00;11.23;;;2.90;99.90;;;;;;4993265;28;20038;-62
2024/01/06 04:37:32;;;;;;;25.40;11.43;;;2.90;99.90;;;;;;4991398;28;20042;-61
2024/01/06 04:39:59;;;;;;;35.38;12.90;;;2.90;99.90;;;;;;4985541;28;20125;-61
2024/01/06 04:42:26;;;;;;;25.85;13.10;;;2.90;99.90;;;;;;4993159;28;20049;-62
2024/01/06 04:44:53;;;;;;;30.60;12.50;;;2.90;99.90;;;;;;4983247;28;20042;-62
2024/01/06 04:47:19;;;;;;;27.25;12.02;;;2.90;99.90;;;;;;4993241;28;20117;-62
2024/01/06 04:49:46;;;;;;;27.50;12.77;;;2.90;99.90;;;;;;4989777;28;20156;-62
2024/01/06 04:52:13;;;;;;;29.42;12.88;;;2.90;99.90;;;;;;4993054;28;20050;-62
2024/01/06 04:54:40;;;;;;;17.90;9.38;;;2.90;99.90;;;;;;4993060;28;20046;-62
2024/01/06 04:57:07;;;;;;;22.25;11.73;;;2.80;99.90;;;;;;4992704;28;20073;-62
2024/01/06 04:59:33;;;;;;;36.42;12.85;;;2.90;99.90;;;;;;4988353;28;20050;-61
2024/01/06 05:02:01;;;;;;;28.02;12.75;;;2.90;99.90;;;;;;4985203;28;20038;-62
2024/01/06 05:04:30;;;;;;;;;;;2.90;99.90;;;;;;4992618;28;20415;-62
2024/01/06 05:06:57;;;;;;;25.35;12.40;;;2.90;99.90;;;;;;4988839;28;19921;-62
2024/01/06 05:09:25;;;;;;;20.27;11.00;;;2.90;99.90;;;;;;4991961;28;20096;-62
2024/01/06 05:11:52;;;;;;;22.38;11.93;;;2.80;99.90;;;;;;4992340;28;20038;-62
2024/01/06 05:14:18;;;;;;;22.77;12.65;;;2.80;99.90;;;;;;4992658;28;20034;-62
2024/01/06 05:16:45;;;;;;;15.30;8.82;;;2.90;99.90;;;;;;4992528;28;20121;-62
2024/01/06 05:19:19;;;;;;;23.67;11.63;;;2.90;99.90;;;;;;4998908;28;20042;-61
2024/01/06 05:21:47;;;;;;;25.13;12.07;;;2.90;99.90;;;;;;4992642;28;20617;-62
2024/01/06 05:24:14;;;;;;;25.15;14.32;;;2.90;99.90;;;;;;4992364;28;20061;-62
2024/01/06 05:26:41;;;;;;;21.60;9.93;;;2.90;99.90;;;;;;4992329;28;20085;-62
2024/01/06 05:29:08;;;;;;;22.02;12.85;;;2.90;99.90;;;;;;4988719;28;20531;-62
2024/01/06 05:31:35;;;;;;;27.00;12.45;;;3.00;99.90;;;;;;4991920;28;20499;-61
2024/01/06 05:34:02;;;;;;;24.25;12.02;;;3.00;99.90;;;;;;4987512;28;20039;-61
2024/01/06 05:36:29;;;;;;;20.40;11.57;;;3.00;99.90;;;;;;4987877;28;20042;-62
2024/01/06 05:39:00;;;;;;;23.52;12.07;;;2.90;99.90;;;;;;4988512;28;20041;-62
2024/01/06 05:41:27;;;;;;;19.30;11.77;;;3.00;99.90;;;;;;4986757;28;20125;-61
2024/01/06 05:43:53;;;;;;;15.38;8.48;;;3.00;99.90;;;;;;4991266;28;20117;-62
2024/01/06 05:46:26;;;;;;;23.23;12.60;;;3.10;99.90;;;;;;4991682;28;20103;-62
2024/01/06 05:48:53;;;;;;;25.88;15.23;;;3.10;99.90;;;;;;4986362;28;20060;-62
2024/01/06 05:51:20;;;;;;;21.20;13.30;;;3.10;99.90;;;;;;4992142;28;20125;-62
2024/01/06 05:53:47;;;;;;;20.58;11.95;;;3.10;99.90;;;;;;4989913;28;20045;-61
2024/01/06 05:56:26;;;;;;;18.70;11.73;;;3.20;99.90;;;;;;4991135;28;20050;-62
2024/01/06 05:58:55;;;;;;;17.23;11.35;;;3.20;99.90;;;;;;4991496;28;20046;-62
2024/01/06 06:01:22;;;;;;;18.92;9.80;;;3.20;99.90;;;;;;4984230;28;20047;-62
2024/01/06 06:03:50;;;;;;;18.45;9.90;;;3.20;99.90;;;;;;4991661;28;20034;-62
2024/01/06 06:06:18;;;;;;;14.70;9.40;;;3.10;99.90;;;;;;4991683;28;20042;-61
2024/01/06 06:08:46;;;;;;;16.60;9.88;;;3.00;99.90;;;;;;4991544;28;20121;-62
2024/01/06 06:11:13;;;;;;;13.85;8.98;;;3.00;99.90;;;;;;4987489;28;20543;-62
2024/01/06 06:13:41;;;;;;;13.95;9.10;;;2.90;99.90;;;;;;4992220;28;20121;-61
2024/01/06 06:16:12;;;;;;;14.27;8.95;;;3.00;99.90;;;;;;4991213;28;20050;-61
2024/01/06 06:18:39;;;;;;;13.90;8.77;;;3.00;99.90;;;;;;4999799;28;20403;-62
2024/01/06 06:21:07;;;;;;;15.13;8.60;;;2.90;99.90;;;;;;4985637;28;20106;-60
2024/01/06 06:23:35;;;;;;;14.77;8.52;;;2.90;99.90;;;;;;4991550;28;20476;-62
2024/01/06 06:26:05;;;;;;;;;;;2.90;99.90;;;;;;4992181;28;20088;-61
2024/01/06 06:28:32;;;;;;;13.88;9.48;;;2.90;99.90;;;;;;4998044;28;20335;-62
2024/01/06 06:30:59;;;;;;;13.70;8.55;;;2.90;99.90;;;;;;4986942;28;20057;-61
2024/01/06 06:33:26;;;;;;;;;;;2.90;99.90;;;;;;4992260;28;20566;-61
2024/01/06 06:35:53;;;;;;;13.30;8.20;;;2.80;99.90;;;;;;4991061;28;19980;-61
2024/01/06 06:38:21;;;;;;;14.38;8.98;;;2.80;99.90;;;;;;4991859;28;20042;-61
2024/01/06 06:40:48;;;;;;;14.13;9.48;;;2.80;99.90;;;;;;4995612;28;20487;-61
2024/01/06 06:43:14;;;;;;;15.43;8.40;;;2.80;99.90;;;;;;4995432;28;20495;-61
2024/01/06 06:45:45;;;;;;;16.48;8.63;;;2.80;99.90;;;;;;4995741;28;20062;-61
2024/01/06 06:48:12;;;;;;;16.05;9.65;;;2.80;99.90;;;;;;4993424;28;20038;-61
2024/01/06 06:50:41;;;;;;;17.20;9.18;;;2.90;99.90;;;;;;4990758;28;20042;-61
2024/01/06 06:53:08;;;;;;;14.77;9.60;;;2.80;99.90;;;;;;4993720;28;20042;-61
2024/01/06 06:55:37;;;;;;;15.45;9.20;;;2.80;99.90;;;;;;4989278;28;20031;-61
2024/01/06 06:58:05;;;;;;;12.35;7.63;;;2.80;99.90;;;;;;4994887;28;20100;-61
2024/01/06 07:00:32;;;;;;;16.20;9.20;;;2.80;99.90;;;;;;4990112;28;20117;-61
2024/01/06 07:02:59;;;;;;;17.05;8.18;;;2.80;99.90;;;;;;4993882;28;20054;-61
2024/01/06 07:05:26;;;;;;;;;;;2.80;99.90;;;;;;4995660;28;20070;-61
2024/01/06 07:07:54;;;;;;;13.65;7.60;;;2.80;99.90;;;;;;4994618;28;20537;-61
2024/01/06 07:10:21;;;;;;;12.85;8.30;;;2.80;99.90;;;;;;4995211;28;20070;-61
2024/01/06 07:12:48;;;;;;;14.30;8.18;;;2.80;99.90;;;;;;4993901;28;20042;-61
2024/01/06 07:15:15;;;;;;;16.25;8.57;;;2.70;99.90;;;;;;4993810;28;20463;-61
2024/01/06 07:17:42;;;;;;;19.60;8.80;;;2.70;99.90;;;;;;4994128;28;20406;-61
2024/01/06 07:20:09;;;;;;;23.17;9.65;;;2.70;99.90;;;;;;4991971;28;20051;-61
2024/01/06 07:22:36;;;;;;;16.70;8.93;;;2.80;99.90;;;;;;4994930;28;20050;-62
2024/01/06 07:25:03;;;;;;;15.75;8.48;;;2.80;99.90;;;;;;4994288;28;20057;-61
2024/01/06 07:27:30;;;;;;;18.15;8.45;;;2.80;99.90;;;;;;4994220;28;20070;-61
2024/01/06 07:29:57;;;;;;;15.45;9.15;;;2.80;99.90;;;;;;4986527;28;20447;-61
2024/01/06 07:32:24;;;;;;;17.95;9.20;;;2.80;99.90;;;;;;4994273;28;20054;-61
2024/01/06 07:34:51;;;;;;;18.35;8.38;;;2.80;99.90;;;;;;4995642;28;20288;-61
2024/01/06 07:37:18;;;;;;;15.35;10.00;;;2.80;99.90;;;;;;4993924;28;20049;-62
2024/01/06 07:39:45;;;;;;;12.23;7.03;;;2.80;99.90;;;;;;4992534;28;20049;-61
2024/01/06 07:42:12;;;;;;;18.95;9.80;;;2.70;99.90;;;;;;4994078;28;20058;-61
2024/01/06 07:44:38;;;;;;;19.52;11.15;;;2.70;99.90;;;;;;4993512;28;20496;-61
2024/01/06 07:47:05;;;;;;;19.70;12.40;;;2.70;99.90;;;;;;4993852;28;20483;-62
2024/01/06 07:49:32;;;;;;;23.55;11.93;;;2.60;99.90;;;;;;4993075;28;20042;-61
2024/01/06 07:51:59;;;;;;;24.10;12.70;;;2.60;99.90;;;;;;4993702;28;20042;-62
2024/01/06 07:54:27;;;;;;;16.58;9.88;;;2.60;99.90;;;;;;4992692;28;20039;-61
2024/01/06 07:56:54;;;;;;;17.17;10.07;;;2.50;99.90;;;;;;4991391;28;20117;-62
2024/01/06 07:59:20;;;;;;;16.55;9.13;;;2.50;99.90;;;;;;4993818;28;20106;-61
2024/01/06 08:01:47;;;;;;;14.55;8.85;;;2.50;99.90;;;;;;4993738;28;20168;-61
2024/01/06 08:04:14;;;;;;;11.05;7.05;;;2.50;99.90;;;;;;4994159;28;20484;-61
2024/01/06 08:06:41;;;;;;;;;;;2.50;99.90;;;;;;4999009;28;20072;-61
2024/01/06 08:09:08;;;;;;;9.98;6.78;;;2.60;99.90;;;;;;4995993;28;19925;-62
2024/01/06 08:11:35;;;;;;;9.95;6.53;;;2.60;99.90;;;;;;4993086;28;20428;-60
2024/01/06 08:14:02;;;;;;;9.05;5.15;;;2.70;99.90;;;;;;4993715;28;20129;-61
2024/01/06 08:16:29;;;;;;;10.73;6.10;;;2.60;99.90;;;;;;4993048;28;20038;-61
2024/01/06 08:18:55;;;;;;;9.98;5.82;;;2.60;99.90;;;;;;4994012;28;20038;-62
2024/01/06 08:21:23;;;;;;;8.55;4.95;;;2.60;99.90;;;;;;4996095;28;20038;-61
2024/01/06 08:23:50;;;;;;;7.63;4.97;;;2.70;99.90;;;;;;4993461;28;20471;-61
2024/01/06 08:26:17;;;;;;;;;;;2.70;99.90;;;;;;4994010;28;20068;-62
2024/01/06 08:28:44;;;;;;;10.32;6.10;;;2.70;99.90;;;;;;4991968;28;19921;-62
2024/01/06 08:31:11;;;;;;;10.30;6.22;;;2.80;99.90;;;;;;4990810;28;20056;-61
2024/01/06 08:33:38;;;;;;;12.48;7.30;;;2.70;99.90;;;;;;4993802;28;20046;-61
2024/01/06 08:36:05;;;;;;;13.93;7.38;;;2.70;99.90;;;;;;4993150;28;20121;-62
2024/01/06 08:38:32;;;;;;;10.27;6.22;;;2.60;99.90;;;;;;4989221;28;20054;-61
2024/01/06 08:40:59;;;;;;;11.77;6.43;;;2.60;99.90;;;;;;4993376;28;20062;-62
2024/01/06 08:43:26;;;;;;;7.15;4.32;;;2.60;99.90;;;;;;4993646;28;20046;-60
2024/01/06 08:45:53;;;;;;;9.52;5.95;;;2.70;99.90;;;;;;4993344;28;20046;-61
2024/01/06 08:48:21;;;;;;;11.18;6.10;;;2.80;99.90;;;;;;4988529;28;20043;-60
2024/01/06 08:50:48;;;;;;;7.88;4.60;;;2.80;99.90;;;;;;4992510;28;20049;-62
2024/01/06 08:53:15;;;;;;;10.40;5.80;;;2.80;99.90;;;;;;4990499;28;20053;-61
2024/01/06 08:55:42;;;;;;;10.32;6.43;;;2.90;99.90;;;;;;4992516;28;20061;-61
2024/01/06 08:58:13;;;;;;;12.57;5.75;;;3.00;99.90;;;;;;4991458;28;20509;-61
2024/01/06 09:00:39;;;;;;;10.23;5.30;;;3.00;99.90;;;;;;4987509;28;20101;-61
2024/01/06 09:03:07;;;;;;;17.33;10.40;;;3.00;99.90;;;;;;4990225;28;20061;-61
2024/01/06 09:05:34;;;;;;;19.40;11.40;;;3.00;99.90;;;;;;4992963;28;20077;-61
2024/01/06 09:08:01;;;;;;;18.77;11.13;;;3.00;99.90;;;;;;4991832;28;20549;-60
2024/01/06 09:10:28;;;;;;;29.73;15.50;;;3.00;99.90;;;;;;4989628;28;20066;-61
2024/01/06 09:12:56;;;;;;;25.73;13.20;;;2.90;99.90;;;;;;4995581;28;20040;-62
2024/01/06 09:15:23;;;;;;;23.02;12.55;;;2.90;99.90;;;;;;4992913;28;20054;-62
2024/01/06 09:17:50;;;;;;;18.75;10.40;;;2.80;99.90;;;;;;4998702;28;20034;-62
2024/01/06 09:20:22;;;;;;;;;;;2.80;99.90;;;;;;4997228;28;20117;-61
2024/01/06 09:22:49;;;;;;;14.38;8.35;;;2.90;99.90;;;;;;4987252;28;19922;-62
2024/01/06 09:25:16;;;;;;;14.70;8.32;;;3.00;99.90;;;;;;4991676;28;20058;-62
2024/01/06 09:27:43;;;;;;;15.05;8.57;;;3.00;99.90;;;;;;4990866;28;20054;-61
2024/01/06 09:30:10;;;;;;;12.80;7.60;;;2.90;99.90;;;;;;4990313;28;20039;-61
2024/01/06 09:32:38;;;;;;;11.77;7.05;;;3.00;99.90;;;;;;4990818;28;20042;-61
2024/01/06 09:35:05;;;;;;;11.27;7.32;;;3.10;99.90;;;;;;4989195;28;20399;-61
2024/01/06 09:37:32;;;;;;;12.75;7.93;;;3.20;99.90;;;;;;4990845;28;20054;-62
2024/01/06 09:39:59;;;;;;;11.23;7.65;;;3.10;99.90;;;;;;4989613;28;20487;-62
2024/01/06 09:42:26;;;;;;;12.98;8.88;;;3.20;99.90;;;;;;4990887;28;20047;-61
2024/01/06 09:44:53;;;;;;;13.88;8.05;;;3.20;99.90;;;;;;4989857;28;20138;-62
2024/01/06 09:47:22;;;;;;;13.77;7.25;;;3.20;99.90;;;;;;4991282;28;20065;-62
2024/01/06 09:49:50;;;;;;;12.75;7.50;;;3.30;99.90;;;;;;4990901;28;20400;-62
2024/01/06 09:52:22;;;;;;;12.95;7.65;;;3.30;99.90;;;;;;4983214;28;20496;-62
2024/01/06 09:54:53;;;;;;;12.32;7.55;;;3.40;99.90;;;;;;4991817;28;20066;-62
2024/01/06 09:57:23;;;;;;;11.93;6.88;;;3.40;99.90;;;;;;4990433;28;20034;-62
2024/01/06 09:59:51;;;;;;;12.70;7.13;;;3.50;99.90;;;;;;4987116;28;20048;-62
2024/01/06 10:02:18;;;;;;;13.68;8.07;;;3.50;99.90;;;;;;4989065;28;20057;-61
2024/01/06 10:04:45;;;;;;;12.85;7.13;;;3.50;99.90;;;;;;4990750;28;20116;-62
2024/01/06 10:07:13;;;;;;;14.10;7.65;;;3.50;99.90;;;;;;4991292;28;20057;-62
2024/01/06 10:09:44;;;;;;;14.35;8.43;;;3.60;99.90;;;;;;4989708;28;20056;-62
2024/01/06 10:12:11;;;;;;;14.10;7.75;;;3.60;99.90;;;;;;4991242;28;20086;-62
2024/01/06 10:14:39;;;;;;;14.38;7.35;;;3.60;99.90;;;;;;4991164;28;20105;-60
2024/01/06 10:17:10;;;;;;;13.32;6.75;;;3.60;99.90;;;;;;4991123;28;20038;-62
2024/01/06 10:19:38;;;;;;;11.88;6.22;;;3.60;99.90;;;;;;4983193;28;20496;-62
2024/01/06 10:22:05;;;;;;;18.13;8.65;;;3.70;99.90;;;;;;4985721;28;20050;-62
2024/01/06 10:24:32;;;;;;;14.52;8.07;;;3.70;99.90;;;;;;4990190;28;20447;-62
2024/01/06 10:26:59;;;;;;;17.02;8.45;;;3.70;99.90;;;;;;4990313;28;20042;-62
2024/01/06 10:29:26;;;;;;;11.70;7.32;;;3.70;99.90;;;;;;4983967;28;20516;-62
2024/01/06 10:31:54;;;;;;;16.23;7.28;;;3.70;99.90;;;;;;4985787;28;20097;-62
2024/01/06 10:34:23;;;;;;;17.13;7.65;;;3.80;99.90;;;;;;4990351;28;20054;-62
2024/01/06 10:36:53;;;;;;;9.38;6.38;;;3.70;99.90;;;;;;4991041;28;20035;-61
2024/01/06 10:39:21;;;;;;;12.90;6.50;;;3.70;99.90;;;;;;4983068;28;20049;-61
2024/01/06 10:41:48;;;;;;;14.45;7.07;;;3.80;99.90;;;;;;4991472;28;20038;-61
2024/01/06 10:44:16;;;;;;;14.35;7.05;;;3.70;99.90;;;;;;4990163;28;20611;-62
2024/01/06 10:46:44;;;;;;;12.05;6.35;;;3.80;99.90;;;;;;4991039;28;20082;-62
2024/01/06 10:49:12;;;;;;;11.15;6.57;;;3.80;99.90;;;;;;4983680;28;20129;-61
2024/01/06 10:51:40;;;;;;;12.27;6.50;;;3.70;99.90;;;;;;4991101;28;20523;-61
2024/01/06 10:54:08;;;;;;;8.10;5.32;;;3.70;99.90;;;;;;4991387;28;20043;-62
2024/01/06 10:56:38;;;;;;;10.50;5.60;;;3.70;99.90;;;;;;4990999;28;20393;-61
2024/01/06 10:59:07;;;;;;;10.02;5.82;;;3.70;99.90;;;;;;4989984;28;20049;-63
2024/01/06 11:01:35;;;;;;;10.57;5.30;;;3.70;99.90;;;;;;4991198;28;20443;-62
2024/01/06 11:04:06;;;;;;;8.57;5.30;;;3.70;99.90;;;;;;4984888;28;20101;-61
2024/01/06 11:06:34;;;;;;;8.35;5.25;;;3.80;99.90;;;;;;4990603;28;20051;-62
2024/01/06 11:09:19;;;;;;;10.65;6.47;;;3.80;99.90;;;;;;4990222;28;20046;-62
2024/01/06 11:11:47;;;;;;;10.13;6.03;;;3.80;99.90;;;;;;4981814;28;20125;-62
2024/01/06 11:14:25;;;;;;;12.13;6.90;;;3.80;99.90;;;;;;4991513;28;20105;-62
2024/01/06 11:16:52;;;;;;;;;;;3.70;99.90;;;;;;4991400;28;20042;-62
2024/01/06 11:19:34;;;;;;;9.52;4.82;;;3.80;99.90;;;;;;4990941;28;20390;-62
2024/01/06 11:22:28;;;;;;;7.43;4.63;;;3.80;99.90;;;;;;4989136;28;20049;-62
2024/01/06 11:25:03;;;;;;;9.57;4.13;;;3.80;99.90;;;;;;4992288;28;20399;-61
2024/01/06 11:27:31;;;;;;;6.90;3.47;;;3.80;99.90;;;;;;4993795;28;20057;-62
2024/01/06 11:30:00;;;;;;;6.22;3.20;;;3.80;99.90;;;;;;4987223;28;20050;-62
2024/01/06 11:32:36;;;;;;;3.60;2.30;;;3.90;99.90;;;;;;4994278;28;20115;-62
2024/01/06 11:35:09;;;;;;;3.63;1.75;;;3.80;99.90;;;;;;4993495;28;20088;-62
2024/01/06 11:37:40;;;;;;;4.25;1.70;;;3.70;99.90;;;;;;4993897;28;20046;-62
2024/01/06 11:40:21;;;;;;;2.03;1.58;;;3.70;99.90;;;;;;4986498;28;20047;-62
2024/01/06 11:43:02;;;;;;;3.20;1.92;;;3.60;99.90;;;;;;4994140;28;20042;-62
2024/01/06 11:45:30;;;;;;;3.95;2.03;;;3.60;99.90;;;;;;4994053;28;20053;-61
2024/01/06 11:48:01;;;;;;;;;;;3.60;99.90;;;;;;4989845;28;20053;-61
2024/01/06 11:50:29;;;;;;;4.00;2.75;;;3.60;99.90;;;;;;4991613;28;19925;-61
2024/01/06 11:52:56;;;;;;;3.03;1.77;;;3.70;99.90;;;;;;4993125;28;20045;-61
2024/01/06 11:55:24;;;;;;;3.50;1.80;;;3.80;99.90;;;;;;4993541;28;20482;-62
2024/01/06 11:57:50;;;;;;;;;;;3.80;99.90;;;;;;4985364;28;20041;-61
2024/01/06 12:00:18;;;;;;;2.95;1.70;;;3.80;99.90;;;;;;4993983;28;20391;-61
2024/01/06 12:02:45;;;;;;;;;;;3.80;99.90;;;;;;4992302;28;20046;-62
2024/01/06 12:05:18;;;;;;;3.20;1.92;;;3.90;99.90;;;;;;4993616;28;19921;-62
2024/01/06 12:08:04;;;;;;;2.35;1.33;;;3.90;99.90;;;;;;4992977;28;20598;-62
2024/01/06 12:10:32;;;;;;;2.42;1.63;;;3.90;99.90;;;;;;4993088;28;20053;-62
2024/01/06 12:13:04;;;;;;;2.78;1.40;;;4.00;99.90;;;;;;4991527;28;20116;-61
2024/01/06 12:15:33;;;;;;;2.75;1.73;;;3.90;99.90;;;;;;4988116;28;20477;-60
2024/01/06 12:18:03;;;;;;;4.68;1.98;;;4.00;99.90;;;;;;4986966;28;20034;-62
2024/01/06 12:20:32;;;;;;;2.78;1.65;;;3.90;99.90;;;;;;4985172;28;20108;-62
2024/01/06 12:23:00;;;;;;;3.13;2.10;;;3.90;99.90;;;;;;4993645;28;20513;-61
2024/01/06 12:25:29;;;;;;;3.35;1.65;;;3.90;99.90;;;;;;4992305;28;20047;-62
2024/01/06 12:27:55;;;;;;;3.97;1.40;;;3.90;99.90;;;;;;4993217;28;20054;-62
2024/01/06 12:30:23;;;;;;;5.55;2.03;;;3.80;99.90;;;;;;4990076;28;20042;-62
2024/01/06 12:32:52;;;;;;;4.20;1.98;;;3.70;99.90;;;;;;4993522;28;20026;-62
2024/01/06 12:35:21;;;;;;;3.75;2.25;;;3.70;99.90;;;;;;4992308;28;20101;-61
2024/01/06 12:37:48;;;;;;;3.40;2.30;;;3.70;99.90;;;;;;4992834;28;20057;-62
2024/01/06 12:40:17;;;;;;;2.97;2.00;;;3.60;99.90;;;;;;4992521;28;20049;-62
2024/01/06 12:42:44;;;;;;;4.25;2.35;;;3.60;99.90;;;;;;4992467;28;20479;-61
2024/01/06 12:45:12;;;;;;;4.70;1.90;;;3.60;99.90;;;;;;4974872;28;20053;-61
2024/01/06 12:47:40;;;;;;;5.78;2.22;;;3.50;99.90;;;;;;4992897;28;20049;-61
2024/01/06 12:50:08;;;;;;;7.38;2.10;;;3.50;99.90;;;;;;4991784;28;20042;-61